עמוד ראשי
METAR-TAF:

METAR-TAF

שדות תעופה :

קרייסטצ'רץ', ניו זילנד

קו רוחב: 43-29S, קו אורך: 172-33E, גובה: 38מטר

תצפית מזג אוויר נוכחית

הדו"ח נערך לפני 31דקות, בשעה 12:00 UTC
רוח 1קשר מכיוון דרום
טמפרטורת 5 צלסיוס
לחות 93%
לחץ 1037 hPa
ראות 10 קילומטר או יותר

METAR: NZCH 121200Z AUTO 17001KT 9999 OVC018/// 05/04 Q1037

זמן: 00:31 (12:31 UTC)

תחזית

הדו"ח נערך לפני 1 שעות ו 27דקות, בשעה 11:04 UTC
תחזית בתוקף מ 12 ב 12 UTC עד 13 ב 18 UTC
רוח 2קשר עם כיוונים משתנים
ראות 10 קילומטר או יותר
עננים בינוניים בגובה 1800רגל
יעשה מ
13 ב 00 UTC עד 13 ב 02 UTC
רוח 10קשר מכיוון מזרח/צפון-מזרח
יעשה מ
13 ב 10 UTC עד 13 ב 12 UTC
רוח 2קשר עם כיוונים משתנים
עננים בינוניים בגובה 1200רגל
יעשה מ
13 ב 16 UTC עד 13 ב 18 UTC
עננים בינוניים בגובה 2500רגל

TAF: NZCH 121104Z 1212/1318 VRB02KT 9999 BKN018 BECMG 1300/1302 06010KT BECMG 1310/1312 VRB02KT BKN012 BECMG 1316/1318 BKN025

תצפיות ותחזיות מזג אוויר לגבי יותר מ- 4,000 שדות תעופה ברחבי העולם. דוחות METAR ו- TAF.

התחנות הזמינות מסומנות בנקודות צהובות ואדומות על גבי המפה.

העבר את העכבר לנקודה הצבעונית על מנת לראות את שם התחנה.

לאחר מכן, לחץ כדי לראות את תוכן ואת תחזיות מזג האוויר.

כדי לשנות את המפה: לחץ על הכפתורים הירוקים עם הפלוס השחור כדי להתקרב; על הכפתור הירוק עם המקף כדי להתרחק; או בחיצים הירוקים למפות סמוכות.


METAR-TAF: